Holicong, Pennsylvania
Current Conditions -  °F | °C
As of 8:54 AM on Sunday 25 Jan 2015 (Local Time) from KDYL Reporting Station
Broken Clouds Broken Clouds  
Wind Chill: 30°   Ceiling: 6000
Heat Index: 36°   Visibility: 10mi
Dew Point: 28°   Wind: 7mph
Humidity: 73%   Direction: 270°W
Pressure: 29.73"   Gusts: NA
Location:  40.34°N, 75.05°W
Report Text: KDYL 251354Z AUTO 27006KT 10SM SCT037 BKN060 02/M02 A2973 RMK AO2 SLP075 T00221022
Loading
Personal Weather Stations






























Interactive Weather Map New forecast layout! Learn more

10-Day Weather Forecast

Advertisements
Track Severe Weather on mobile